createdAt,value
2023-06-13T00:02:07.046Z,17.80
2023-06-13T00:04:39.496Z,17.70
2023-06-13T00:07:14.711Z,17.70
2023-06-13T00:09:57.395Z,17.60
2023-06-13T00:12:42.915Z,17.60
2023-06-13T00:15:16.342Z,17.60
2023-06-13T00:17:59.174Z,17.50
2023-06-13T00:20:43.747Z,17.50
2023-06-13T00:23:35.583Z,17.50
2023-06-13T00:26:16.487Z,17.40
2023-06-13T00:29:09.388Z,17.40
2023-06-13T00:31:50.746Z,17.40
2023-06-13T00:34:37.672Z,17.40
2023-06-13T00:37:35.963Z,17.40
2023-06-13T00:40:24.172Z,17.40
2023-06-13T00:43:32.489Z,17.40
2023-06-13T00:46:19.364Z,17.40
2023-06-13T00:49:09.984Z,17.50
2023-06-13T00:51:43.528Z,17.50
2023-06-13T00:54:18.620Z,17.50
2023-06-13T00:57:00.256Z,17.50
2023-06-13T00:59:46.185Z,17.50
2023-06-13T01:02:34.718Z,17.50
2023-06-13T01:05:30.582Z,17.50
2023-06-13T01:08:27.399Z,17.50
2023-06-13T01:11:19.260Z,17.60
2023-06-13T01:14:33.223Z,17.50
2023-06-13T01:17:26.898Z,17.50
2023-06-13T01:20:06.592Z,17.50
2023-06-13T01:22:59.015Z,17.50
2023-06-13T01:26:04.687Z,17.50
2023-06-13T01:28:59.162Z,17.50
2023-06-13T01:31:38.966Z,17.50
2023-06-13T01:34:25.735Z,17.40
2023-06-13T01:37:20.578Z,17.40
2023-06-13T01:39:54.365Z,17.40
2023-06-13T01:42:36.563Z,17.40
2023-06-13T01:45:44.658Z,17.30
2023-06-13T01:48:33.800Z,17.30
2023-06-13T01:51:28.422Z,17.30
2023-06-13T01:54:12.878Z,17.20
2023-06-13T01:57:18.490Z,17.10
2023-06-13T02:00:07.542Z,17.10
2023-06-13T02:03:27.271Z,17.00
2023-06-13T02:06:17.953Z,17.00
2023-06-13T02:09:15.993Z,16.90
2023-06-13T02:11:59.940Z,16.80
2023-06-13T02:14:44.282Z,16.70
2023-06-13T02:17:28.267Z,16.70
2023-06-13T02:20:03.257Z,16.70
2023-06-13T02:22:35.464Z,16.70
2023-06-13T02:25:24.000Z,16.60
2023-06-13T02:28:06.966Z,16.60
2023-06-13T02:30:54.151Z,16.50
2023-06-13T02:33:26.536Z,16.50
2023-06-13T02:36:22.243Z,16.50
2023-06-13T02:39:11.104Z,16.40
2023-06-13T02:41:43.741Z,16.40
2023-06-13T02:44:24.609Z,16.30
2023-06-13T02:47:28.008Z,16.30
2023-06-13T02:50:13.164Z,16.30
2023-06-13T02:52:55.394Z,16.30
2023-06-13T02:55:48.189Z,16.30
2023-06-13T02:58:19.168Z,16.20
2023-06-13T03:01:04.447Z,16.20
2023-06-13T03:03:51.285Z,16.20
2023-06-13T03:06:35.940Z,16.20
2023-06-13T03:09:11.158Z,16.20
2023-06-13T03:11:48.045Z,16.20
2023-06-13T03:14:27.850Z,16.20
2023-06-13T03:17:09.945Z,16.20
2023-06-13T03:20:19.667Z,16.10
2023-06-13T03:22:46.878Z,16.10
2023-06-13T03:25:32.350Z,16.10
2023-06-13T03:28:15.246Z,16.10
2023-06-13T03:31:02.105Z,16.10
2023-06-13T03:33:37.985Z,16.10
2023-06-13T03:36:24.517Z,16.10
2023-06-13T03:39:20.794Z,16.00
2023-06-13T03:42:20.550Z,16.00
2023-06-13T03:45:09.157Z,16.10
2023-06-13T03:47:46.666Z,16.00
2023-06-13T03:50:18.113Z,16.00
2023-06-13T03:53:08.629Z,16.00
2023-06-13T03:55:46.724Z,16.00
2023-06-13T03:58:42.954Z,16.10
2023-06-13T04:01:14.279Z,16.10
2023-06-13T04:03:57.302Z,16.10
2023-06-13T04:06:32.849Z,16.00
2023-06-13T04:09:14.690Z,16.10
2023-06-13T04:12:01.057Z,16.10
2023-06-13T04:14:50.332Z,16.10
2023-06-13T04:17:39.353Z,16.10
2023-06-13T04:20:35.918Z,16.10
2023-06-13T04:23:18.527Z,16.20
2023-06-13T04:26:04.524Z,16.10
2023-06-13T04:28:43.195Z,16.10
2023-06-13T04:31:40.501Z,16.20
2023-06-13T04:34:15.385Z,16.20
2023-06-13T04:37:00.717Z,16.20
2023-06-13T04:39:58.167Z,16.20
2023-06-13T04:42:44.612Z,16.20
2023-06-13T04:45:26.571Z,16.30
2023-06-13T04:48:11.303Z,16.30
2023-06-13T04:50:56.068Z,16.30
2023-06-13T04:53:39.823Z,16.40
2023-06-13T04:56:11.517Z,16.40
2023-06-13T04:58:52.819Z,16.40
2023-06-13T05:01:29.708Z,16.50
2023-06-13T05:04:07.930Z,16.50
2023-06-13T05:06:41.423Z,16.60
2023-06-13T05:09:15.674Z,16.60
2023-06-13T05:12:03.459Z,16.70
2023-06-13T05:14:44.128Z,16.80
2023-06-13T05:17:20.160Z,16.80
2023-06-13T05:19:54.443Z,16.90
2023-06-13T05:22:41.141Z,17.00
2023-06-13T05:25:27.583Z,17.10
2023-06-13T05:28:16.190Z,17.20
2023-06-13T05:30:58.341Z,17.30
2023-06-13T05:33:45.738Z,17.40
2023-06-13T05:36:53.480Z,17.50
2023-06-13T05:39:24.809Z,17.70
2023-06-13T05:42:18.099Z,17.80
2023-06-13T05:45:11.385Z,17.90
2023-06-13T05:48:02.051Z,18.00
2023-06-13T05:50:33.289Z,18.20
2023-06-13T05:53:17.935Z,18.30
2023-06-13T05:56:15.728Z,18.40
2023-06-13T05:59:18.302Z,18.50
2023-06-13T06:02:12.635Z,18.70
2023-06-13T06:04:46.909Z,18.80
2023-06-13T06:07:42.567Z,18.90
2023-06-13T06:10:32.573Z,19.00
2023-06-13T06:13:03.609Z,19.10
2023-06-13T06:15:50.744Z,19.20
2023-06-13T06:18:23.328Z,19.30
2023-06-13T06:21:08.523Z,19.40
2023-06-13T06:23:44.558Z,19.50
2023-06-13T06:26:18.286Z,19.60
2023-06-13T06:28:49.722Z,19.70
2023-06-13T06:31:21.578Z,19.80
2023-06-13T06:33:56.118Z,19.90
2023-06-13T06:36:32.248Z,20.00
2023-06-13T06:39:02.326Z,20.10
2023-06-13T06:41:34.160Z,20.10
2023-06-13T06:44:04.542Z,20.30
2023-06-13T06:46:34.864Z,20.30
2023-06-13T06:49:05.121Z,20.40
2023-06-13T06:51:35.528Z,20.50
2023-06-13T06:54:06.123Z,20.60
2023-06-13T06:56:37.637Z,20.60
2023-06-13T06:59:07.553Z,20.70
2023-06-13T07:01:38.358Z,20.80
2023-06-13T07:04:08.596Z,20.90
2023-06-13T07:06:42.111Z,20.90
2023-06-13T07:09:13.082Z,21.00
2023-06-13T07:11:44.946Z,21.10
2023-06-13T07:14:15.353Z,21.10
2023-06-13T07:16:46.486Z,21.20
2023-06-13T07:19:16.439Z,21.30
2023-06-13T07:21:48.510Z,21.30
2023-06-13T07:24:20.096Z,21.40
2023-06-13T07:26:53.870Z,21.50
2023-06-13T07:29:27.087Z,21.60
2023-06-13T07:31:58.056Z,21.60
2023-06-13T07:34:50.464Z,21.70
2023-06-13T07:37:25.906Z,21.80
2023-06-13T07:39:56.434Z,21.90
2023-06-13T07:42:28.532Z,22.00
2023-06-13T07:44:59.851Z,22.00
2023-06-13T07:47:32.558Z,22.10
2023-06-13T07:50:03.951Z,22.20
2023-06-13T07:52:37.798Z,22.30
2023-06-13T07:55:14.603Z,22.40
2023-06-13T08:00:25.800Z,22.60
2023-06-13T08:02:57.192Z,22.70
2023-06-13T08:05:29.571Z,22.80
2023-06-13T08:08:01.977Z,22.90
2023-06-13T08:10:35.741Z,22.90
2023-06-13T08:13:08.751Z,23.00
2023-06-13T08:15:42.064Z,23.10
2023-06-13T08:18:15.660Z,23.20
2023-06-13T08:20:53.552Z,23.30
2023-06-13T08:23:38.566Z,23.40
2023-06-13T08:26:34.531Z,23.50
2023-06-13T08:29:30.062Z,23.60
2023-06-13T08:32:12.474Z,23.70
2023-06-13T08:35:01.102Z,23.80
2023-06-13T08:37:40.176Z,23.90
2023-06-13T08:40:23.586Z,24.00
2023-06-13T08:43:10.274Z,24.10
2023-06-13T08:46:01.782Z,24.20
2023-06-13T08:48:41.896Z,24.30
2023-06-13T08:51:25.728Z,24.30
2023-06-13T08:54:08.432Z,24.40
2023-06-13T08:56:52.436Z,24.50
2023-06-13T08:59:36.958Z,24.60
2023-06-13T09:02:34.388Z,24.70
2023-06-13T09:05:21.153Z,24.80
2023-06-13T09:11:12.381Z,24.90
2023-06-13T09:14:05.358Z,25.00
2023-06-13T09:16:56.318Z,25.00
2023-06-13T09:20:10.681Z,25.10
2023-06-13T09:22:44.722Z,25.20
2023-06-13T09:25:20.186Z,25.20
2023-06-13T09:28:04.594Z,25.30
2023-06-13T09:30:39.162Z,25.40
2023-06-13T09:33:22.271Z,25.50
2023-06-13T09:36:24.903Z,25.50
2023-06-13T09:39:06.232Z,25.60
2023-06-13T09:42:04.496Z,25.70
2023-06-13T09:44:57.890Z,25.70
2023-06-13T09:47:53.592Z,25.80
2023-06-13T09:50:36.039Z,25.80
2023-06-13T09:53:12.360Z,25.90
2023-06-13T09:55:55.562Z,26.00
2023-06-13T09:58:33.395Z,26.00
2023-06-13T10:01:25.343Z,26.10
2023-06-13T10:04:07.766Z,26.20
2023-06-13T10:06:56.507Z,26.20
2023-06-13T10:09:49.919Z,26.30
2023-06-13T10:13:00.775Z,26.30
2023-06-13T10:15:46.639Z,26.40
2023-06-13T10:18:42.917Z,26.50
2023-06-13T10:21:28.079Z,26.50
2023-06-13T10:24:11.343Z,26.60
2023-06-13T10:27:04.230Z,26.70
2023-06-13T10:30:25.925Z,26.70
2023-06-13T10:33:45.929Z,26.90
2023-06-13T10:36:48.250Z,27.00
2023-06-13T10:40:00.381Z,27.10
2023-06-13T10:42:43.785Z,27.20
2023-06-13T10:45:29.696Z,27.20
2023-06-13T10:48:17.487Z,27.20
2023-06-13T10:51:01.345Z,27.30
2023-06-13T10:53:46.312Z,27.40
2023-06-13T10:56:19.720Z,27.50
2023-06-13T10:59:05.869Z,27.60
2023-06-13T11:01:58.221Z,27.60
2023-06-13T11:04:56.517Z,27.60
2023-06-13T11:07:35.307Z,27.70
2023-06-13T11:10:17.661Z,27.70
2023-06-13T11:12:49.575Z,27.80
2023-06-13T11:15:49.601Z,27.90
2023-06-13T11:18:36.999Z,27.90
2023-06-13T11:21:17.506Z,28.00
2023-06-13T11:23:57.882Z,28.10
2023-06-13T11:26:49.620Z,28.20
2023-06-13T11:29:41.811Z,28.30
2023-06-13T11:32:34.093Z,28.30
2023-06-13T11:35:18.380Z,28.40
2023-06-13T11:38:17.246Z,28.40
2023-06-13T11:41:08.576Z,28.50
2023-06-13T11:43:58.499Z,28.60
2023-06-13T11:46:48.226Z,28.70
2023-06-13T11:49:32.398Z,28.80
2023-06-13T11:52:17.760Z,28.90
2023-06-13T11:54:52.439Z,29.00
2023-06-13T11:57:29.976Z,29.00
2023-06-13T12:00:17.428Z,29.00
2023-06-13T12:03:01.686Z,29.10
2023-06-13T12:05:58.462Z,29.20
2023-06-13T12:08:49.245Z,29.40
2023-06-13T12:11:47.027Z,29.50
2023-06-13T12:14:35.278Z,29.70
2023-06-13T12:17:11.215Z,29.80
2023-06-13T12:20:13.201Z,29.90
2023-06-13T12:23:17.340Z,30.00
2023-06-13T12:26:10.063Z,30.20
2023-06-13T12:29:06.444Z,30.40
2023-06-13T12:32:02.294Z,30.50
2023-06-13T12:34:36.351Z,30.50
2023-06-13T12:37:20.796Z,30.70
2023-06-13T12:40:14.364Z,30.90
2023-06-13T12:43:13.165Z,31.10
2023-06-13T12:45:48.819Z,31.20
2023-06-13T12:48:36.237Z,31.40
2023-06-13T12:51:11.146Z,31.60
2023-06-13T12:53:54.973Z,31.90
2023-06-13T12:56:39.119Z,32.30
2023-06-13T12:59:21.601Z,32.70
2023-06-13T13:02:03.886Z,33.10
2023-06-13T13:04:39.110Z,33.50
2023-06-13T13:07:20.928Z,33.80
2023-06-13T13:10:04.599Z,34.00
2023-06-13T13:12:40.366Z,34.30
2023-06-13T13:15:32.206Z,34.60
2023-06-13T13:18:08.025Z,35.00
2023-06-13T13:21:04.593Z,35.40
2023-06-13T13:23:51.409Z,35.60
2023-06-13T13:26:32.091Z,35.70
2023-06-13T13:29:22.815Z,35.90
2023-06-13T13:32:01.278Z,36.10
2023-06-13T13:34:41.242Z,36.30
2023-06-13T13:37:12.600Z,36.50
2023-06-13T13:39:50.510Z,36.70
2023-06-13T13:42:40.622Z,36.90
2023-06-13T13:45:47.884Z,37.10
2023-06-13T13:48:25.649Z,37.30
2023-06-13T13:51:10.077Z,37.50
2023-06-13T13:53:42.538Z,37.80
2023-06-13T13:56:39.529Z,38.00
2023-06-13T13:59:13.798Z,38.10
2023-06-13T14:01:54.586Z,38.40
2023-06-13T14:04:31.001Z,38.60
2023-06-13T14:07:09.527Z,38.80
2023-06-13T14:09:40.040Z,39.00
2023-06-13T14:12:12.702Z,39.20
2023-06-13T14:15:01.635Z,39.50
2023-06-13T14:17:53.835Z,39.70
2023-06-13T14:20:46.880Z,40.00
2023-06-13T14:23:23.930Z,40.20
2023-06-13T14:26:14.146Z,40.30
2023-06-13T14:29:00.930Z,40.50
2023-06-13T14:31:45.839Z,40.70
2023-06-13T14:34:47.406Z,40.90
2023-06-13T14:37:40.171Z,41.00
2023-06-13T14:40:39.961Z,41.10
2023-06-13T14:43:21.096Z,41.20
2023-06-13T14:45:52.275Z,41.40
2023-06-13T14:48:29.977Z,41.50
2023-06-13T14:51:28.941Z,41.50
2023-06-13T14:54:23.023Z,41.60
2023-06-13T14:57:12.197Z,41.60
2023-06-13T14:59:44.894Z,41.70
2023-06-13T15:02:39.533Z,41.80
2023-06-13T15:05:36.140Z,41.90
2023-06-13T15:08:49.361Z,41.90
2023-06-13T15:11:43.168Z,42.00
2023-06-13T15:14:15.677Z,42.20
2023-06-13T15:16:59.768Z,42.30
2023-06-13T15:19:52.050Z,42.20
2023-06-13T15:22:40.263Z,42.00
2023-06-13T15:25:30.157Z,41.90
2023-06-13T15:28:32.240Z,41.90
2023-06-13T15:31:21.009Z,41.90
2023-06-13T15:33:56.761Z,41.90
2023-06-13T15:36:33.096Z,41.70
2023-06-13T15:39:23.317Z,41.70
2023-06-13T15:42:37.508Z,41.80
2023-06-13T15:45:12.225Z,41.80
2023-06-13T15:47:58.416Z,41.80
2023-06-13T15:50:49.556Z,41.80
2023-06-13T15:53:21.518Z,41.90
2023-06-13T15:55:53.095Z,42.00
2023-06-13T15:59:01.356Z,42.20
2023-06-13T16:01:59.816Z,42.40
2023-06-13T16:04:30.939Z,42.50
2023-06-13T16:07:11.841Z,42.60
2023-06-13T16:10:05.960Z,42.70
2023-06-13T16:12:54.809Z,42.70
2023-06-13T16:15:34.859Z,42.70
2023-06-13T16:18:21.509Z,42.70
2023-06-13T16:20:54.389Z,42.70
2023-06-13T16:23:29.287Z,42.70
2023-06-13T16:26:09.802Z,42.70
2023-06-13T16:28:54.017Z,42.80
2023-06-13T16:31:35.386Z,42.80
2023-06-13T16:34:14.739Z,42.80
2023-06-13T16:36:59.784Z,42.80
2023-06-13T16:39:34.875Z,42.90
2023-06-13T16:42:19.733Z,42.80
2023-06-13T16:45:00.533Z,42.80
2023-06-13T16:47:54.444Z,42.70
2023-06-13T16:50:36.867Z,42.70
2023-06-13T16:53:27.566Z,42.70
2023-06-13T16:56:02.110Z,42.70
2023-06-13T16:58:49.733Z,42.70
2023-06-13T17:01:33.687Z,42.70
2023-06-13T17:04:32.971Z,42.70
2023-06-13T17:07:05.752Z,42.60
2023-06-13T17:09:50.025Z,42.50
2023-06-13T17:12:23.334Z,42.50
2023-06-13T17:14:54.152Z,42.50
2023-06-13T17:17:27.071Z,42.40
2023-06-13T17:20:17.211Z,42.20
2023-06-13T17:22:48.909Z,42.00
2023-06-13T17:25:35.108Z,41.80
2023-06-13T17:28:23.003Z,41.70
2023-06-13T17:31:19.566Z,41.60
2023-06-13T17:33:57.853Z,41.50
2023-06-13T17:37:11.295Z,41.40
2023-06-13T17:39:54.348Z,41.40
2023-06-13T17:42:36.254Z,41.30
2023-06-13T17:45:07.304Z,41.30
2023-06-13T17:48:04.979Z,41.20
2023-06-13T17:51:06.474Z,41.10
2023-06-13T17:53:51.974Z,41.00
2023-06-13T17:56:28.140Z,40.80
2023-06-13T17:59:07.921Z,40.50
2023-06-13T18:01:42.246Z,40.10
2023-06-13T18:04:32.559Z,39.50
2023-06-13T18:07:19.670Z,38.70
2023-06-13T18:10:15.020Z,37.90
2023-06-13T18:12:57.558Z,37.00
2023-06-13T18:15:48.697Z,36.20
2023-06-13T18:18:32.454Z,35.40
2023-06-13T18:21:07.399Z,34.60
2023-06-13T18:23:45.126Z,33.90
2023-06-13T18:26:52.689Z,33.20
2023-06-13T18:29:27.941Z,32.60
2023-06-13T18:32:08.972Z,31.90
2023-06-13T18:34:43.474Z,31.40
2023-06-13T18:37:16.376Z,30.80
2023-06-13T18:40:01.937Z,30.40
2023-06-13T18:42:57.377Z,29.90
2023-06-13T18:45:37.951Z,29.30
2023-06-13T18:48:11.892Z,28.90
2023-06-13T18:50:47.295Z,28.40
2023-06-13T18:53:32.918Z,28.00
2023-06-13T18:56:16.361Z,27.60
2023-06-13T18:59:02.316Z,27.40
2023-06-13T19:01:47.115Z,27.00
2023-06-13T19:04:38.887Z,26.70
2023-06-13T19:07:26.345Z,26.40
2023-06-13T19:10:22.567Z,26.20
2023-06-13T19:13:11.166Z,26.00
2023-06-13T19:15:49.026Z,25.70
2023-06-13T19:18:27.237Z,25.50
2023-06-13T19:21:02.430Z,25.30
2023-06-13T19:23:33.445Z,25.10
2023-06-13T19:26:14.099Z,24.90
2023-06-13T19:28:45.085Z,24.70
2023-06-13T19:31:27.843Z,24.50
2023-06-13T19:34:08.555Z,24.30
2023-06-13T19:37:16.446Z,24.10
2023-06-13T19:39:49.861Z,23.80
2023-06-13T19:42:35.393Z,23.70
2023-06-13T19:45:20.809Z,23.50
2023-06-13T19:48:27.267Z,23.40
2023-06-13T19:51:18.579Z,23.30
2023-06-13T19:54:07.315Z,23.10
2023-06-13T19:56:39.076Z,23.00
2023-06-13T19:59:19.904Z,22.80
2023-06-13T20:02:00.567Z,22.70
2023-06-13T20:04:41.340Z,22.50
2023-06-13T20:07:17.127Z,22.40
2023-06-13T20:09:53.641Z,22.20
2023-06-13T20:12:24.675Z,22.10
2023-06-13T20:15:09.777Z,22.00
2023-06-13T20:17:47.458Z,21.90
2023-06-13T20:20:23.764Z,21.80
2023-06-13T20:23:01.064Z,21.70
2023-06-13T20:25:43.209Z,21.60
2023-06-13T20:28:32.170Z,21.50
2023-06-13T20:31:22.592Z,21.30
2023-06-13T20:34:18.106Z,21.30
2023-06-13T20:37:13.609Z,21.10
2023-06-13T20:40:02.148Z,21.00
2023-06-13T20:42:42.262Z,20.80
2023-06-13T20:45:31.272Z,20.70
2023-06-13T20:48:17.778Z,20.60
2023-06-13T20:50:50.849Z,20.50
2023-06-13T20:53:36.527Z,20.40
2023-06-13T20:56:24.498Z,20.30
2023-06-13T20:59:16.309Z,20.20
2023-06-13T21:01:56.386Z,20.10
2023-06-13T21:04:41.057Z,20.10
2023-06-13T21:07:43.975Z,20.00
2023-06-13T21:10:39.384Z,19.80
2023-06-13T21:13:20.237Z,19.80
2023-06-13T21:16:09.942Z,19.70
2023-06-13T21:18:55.256Z,19.60
2023-06-13T21:21:38.121Z,19.60
2023-06-13T21:24:12.020Z,19.40
2023-06-13T21:26:50.419Z,19.40
2023-06-13T21:29:26.558Z,19.30
2023-06-13T21:32:09.538Z,19.30
2023-06-13T21:34:44.382Z,19.20
2023-06-13T21:37:26.085Z,19.10
2023-06-13T21:40:02.753Z,19.10
2023-06-13T21:42:38.351Z,19.00
2023-06-13T21:45:30.196Z,18.90
2023-06-13T21:48:41.236Z,18.80
2023-06-13T21:51:30.937Z,18.80
2023-06-13T21:54:20.983Z,18.70
2023-06-13T21:56:57.916Z,18.60
2023-06-13T22:00:02.268Z,18.50
2023-06-13T22:02:53.731Z,18.50
2023-06-13T22:05:32.758Z,18.40
2023-06-13T22:08:04.795Z,18.30
2023-06-13T22:10:38.246Z,18.20
2023-06-13T22:13:17.117Z,18.20
2023-06-13T22:15:58.233Z,18.20
2023-06-13T22:18:35.690Z,18.10
2023-06-13T22:21:19.808Z,18.00
2023-06-13T22:24:00.974Z,18.00
2023-06-13T22:27:01.161Z,17.90
2023-06-13T22:29:57.397Z,17.80
2023-06-13T22:33:21.593Z,17.80
2023-06-13T22:35:56.001Z,17.70
2023-06-13T22:38:29.023Z,17.60
2023-06-13T22:41:14.063Z,17.60
2023-06-13T22:44:00.074Z,17.60
2023-06-13T22:46:48.531Z,17.50
2023-06-13T22:49:38.497Z,17.50
2023-06-13T22:52:12.749Z,17.50
2023-06-13T22:54:48.247Z,17.50
2023-06-13T22:57:43.330Z,17.50
2023-06-13T23:00:19.143Z,17.50
2023-06-13T23:03:30.487Z,17.50
2023-06-13T23:06:13.130Z,17.60
2023-06-13T23:08:51.228Z,17.60
2023-06-13T23:11:49.564Z,17.60
2023-06-13T23:14:38.740Z,17.70
2023-06-13T23:17:45.014Z,17.70
2023-06-13T23:20:36.753Z,17.80
2023-06-13T23:23:36.500Z,17.90
2023-06-13T23:26:37.571Z,18.00
2023-06-13T23:29:31.114Z,18.00
2023-06-13T23:32:20.331Z,18.10
2023-06-13T23:35:14.196Z,18.20
2023-06-13T23:38:07.883Z,18.30
2023-06-13T23:41:18.968Z,18.40
2023-06-13T23:44:12.650Z,18.50
2023-06-13T23:47:14.149Z,18.60
2023-06-13T23:50:03.537Z,18.60
2023-06-13T23:53:02.137Z,18.70
2023-06-13T23:55:51.215Z,18.80
2023-06-13T23:58:53.073Z,18.90
